Time;durP1;ratioP1;P1;durP2;ratioP2;P2;SDS_P1;SDS_P2;PMS_P1;PMS_P2;Temp;Humidity;BMP_temperature;BMP_pressure;BME280_temperature;BME280_humidity;BME280_pressure;Samples;Min_cycle;Max_cycle;Signal;HPM_P1;HPM_P2
2021/12/20 00:00:21;;;;;;;2.15;1.65;;;;;;;9.83;53.82;97932.00;1779568;80;21029;-58
2021/12/20 00:02:55;;;;;;;2.72;1.80;;;;;;;9.84;53.82;97936.27;1781707;80;21061;-60
2021/12/20 00:05:21;;;;;;;2.25;1.70;;;;;;;9.84;53.80;97936.78;1779035;80;21052;-60
2021/12/20 00:07:48;;;;;;;2.00;1.67;;;;;;;9.84;53.81;97944.23;1777777;80;21688;-62
2021/12/20 00:10:17;;;;;;;2.70;2.15;;;;;;;9.84;53.79;97935.46;1776596;80;21022;-61
2021/12/20 00:12:43;;;;;;;2.30;1.67;;;;;;;9.83;53.79;97945.27;1774807;80;21041;-61
2021/12/20 00:15:10;;;;;;;2.20;1.80;;;;;;;9.84;53.78;97948.72;1782506;80;21026;-59
2021/12/20 00:17:37;;;;;;;2.80;2.05;;;;;;;9.84;53.75;97953.51;1781908;80;20990;-60
2021/12/20 00:20:06;;;;;;;2.05;1.60;;;;;;;9.84;53.76;97954.03;1781678;80;21061;-60
2021/12/20 00:22:34;;;;;;;1.95;1.50;;;;;;;9.83;53.76;97962.50;1768731;80;21056;-59
2021/12/20 00:25:00;;;;;;;2.33;1.70;;;;;;;9.84;53.75;97961.98;1780719;80;21085;-60
2021/12/20 00:27:26;;;;;;;1.72;1.32;;;;;;;9.84;53.74;97968.61;1782705;80;21493;-59
2021/12/20 00:29:53;;;;;;;1.92;1.35;;;;;;;9.84;53.74;97965.44;1773329;80;21002;-58
2021/12/20 00:32:19;;;;;;;1.82;1.32;;;;;;;9.84;53.73;97961.47;1782576;80;21026;-59
2021/12/20 00:34:46;;;;;;;2.22;1.57;;;;;;;9.84;53.71;97957.48;1781270;80;21060;-58
2021/12/20 00:42:42;;;;;;;2.62;1.50;;;;;;;9.84;53.70;97964.64;1781738;80;21080;-58
2021/12/20 00:45:11;;;;;;;2.27;1.72;;;;;;;9.82;53.69;97967.48;1782203;80;21057;-58
2021/12/20 00:47:39;;;;;;;2.35;1.52;;;;;;;9.82;53.71;97970.66;1778898;80;21034;-59
2021/12/20 00:50:07;;;;;;;1.98;1.30;;;;;;;9.82;53.71;97960.86;1779936;80;21497;-59
2021/12/20 00:52:34;;;;;;;1.72;1.20;;;;;;;9.82;53.72;97964.03;1769096;79;21061;-57
2021/12/20 00:55:00;;;;;;;2.20;1.62;;;;;;;9.82;53.71;97965.36;1776432;80;21041;-58
2021/12/20 00:57:26;;;;;;;2.35;1.82;;;;;;;9.81;53.72;97965.87;1765363;80;21002;-59
2021/12/20 00:59:53;;;;;;;2.27;1.80;;;;;;;9.82;53.68;97966.16;1778479;80;21110;-58
2021/12/20 01:02:19;;;;;;;2.42;1.60;;;;;;;9.82;53.65;97969.33;1782479;80;22039;-59
2021/12/20 01:04:46;;;;;;;1.92;1.50;;;;;;;9.82;53.64;97967.48;1779979;80;21089;-57
2021/12/20 01:07:12;;;;;;;2.33;1.65;;;;;;;9.81;53.63;97961.06;1766575;80;21098;-57
2021/12/20 01:09:39;;;;;;;2.45;1.67;;;;;;;9.82;53.62;97966.68;1779877;80;20986;-58
2021/12/20 01:12:14;;;;;;;2.83;1.70;;;;;;;9.81;53.65;97974.31;1779965;80;22018;-58
2021/12/20 01:14:37;;;;;;;2.50;1.85;;;;;;;9.82;53.61;97977.29;1778361;80;21569;-58
2021/12/20 01:17:05;;;;;;;2.00;1.55;;;;;;;9.81;53.64;97972.50;1780075;80;21827;-58
2021/12/20 01:19:36;;;;;;;3.20;1.50;;;;;;;9.82;53.61;97983.92;1782204;80;21018;-57
2021/12/20 01:22:03;;;;;;;2.25;1.77;;;;;;;9.81;53.59;97975.16;1782193;80;21054;-58
2021/12/20 01:24:30;;;;;;;1.82;1.25;;;;;;;9.80;53.61;97970.86;1780827;80;22031;-59
2021/12/20 01:26:57;;;;;;;2.02;1.57;;;;;;;9.80;53.62;97972.70;1782012;80;20998;-59
2021/12/20 01:29:24;;;;;;;2.60;1.47;;;;;;;9.80;53.60;97981.47;1775903;80;21290;-58
2021/12/20 01:31:50;;;;;;;1.98;1.67;;;;;;;9.80;53.59;97976.69;1782503;80;21029;-58
2021/12/20 01:34:17;;;;;;;2.10;1.42;;;;;;;9.80;53.59;97978.01;1779361;80;21490;-60
2021/12/20 01:36:43;;;;;;;2.35;1.70;;;;;;;9.79;53.59;97977.20;1782201;80;22439;-58
2021/12/20 01:39:11;;;;;;;2.58;1.32;;;;;;;9.79;53.59;97972.39;1774900;80;21014;-59
2021/12/20 01:41:42;;;;;;;1.62;1.40;;;;;;;9.79;53.59;97971.06;1782501;80;21025;-58
2021/12/20 01:44:08;;;;;;;1.92;1.37;;;;;;;9.79;53.57;97967.08;1781326;80;21068;-57
2021/12/20 01:46:35;;;;;;;1.60;1.40;;;;;;;9.78;53.58;97964.95;1774143;80;21514;-59
2021/12/20 01:49:05;;;;;;;2.10;1.70;;;;;;;9.78;53.56;97971.58;1775291;80;21148;-58
2021/12/20 01:54:04;;;;;;;2.15;1.47;;;;;;;9.78;53.56;97974.75;1781812;80;21033;-57
2021/12/20 01:56:35;;;;;;;3.17;1.80;;;;;;;9.78;53.55;97976.08;1757987;80;21084;-58
2021/12/20 01:59:04;;;;;;;1.85;1.55;;;;;;;9.77;53.55;97971.78;1782078;80;21081;-58
2021/12/20 02:01:30;;;;;;;1.40;1.30;;;;;;;9.77;53.56;97975.76;1782558;80;21506;-59
2021/12/20 02:04:00;;;;;;;2.27;1.92;;;;;;;9.76;53.57;97976.80;1782297;80;20990;-58
2021/12/20 02:06:34;;;;;;;2.00;1.62;;;;;;;9.76;53.56;97974.95;1781619;80;20994;-59
2021/12/20 02:09:02;;;;;;;1.65;1.40;;;;;;;9.75;53.56;97969.84;1771543;80;21046;-58
2021/12/20 02:11:28;;;;;;;2.35;1.42;;;;;;;9.75;53.55;97981.26;1778459;79;20998;-58
2021/12/20 02:13:55;;;;;;;1.92;1.20;;;;;;;9.75;53.56;97979.13;1778456;80;21940;-58
2021/12/20 02:16:22;;;;;;;2.17;1.50;;;;;;;9.75;53.53;97975.15;1782715;80;21037;-58
2021/12/20 02:18:49;;;;;;;2.12;1.57;;;;;;;9.75;53.53;97975.15;1774835;80;21092;-58
2021/12/20 02:21:15;;;;;;;1.65;1.30;;;;;;;9.74;53.53;97972.20;1780321;80;21034;-58
2021/12/20 02:23:45;;;;;;;2.00;1.45;;;;;;;9.74;53.53;97979.64;1782460;80;21073;-56
2021/12/20 02:26:14;;;;;;;1.60;1.50;;;;;;;9.74;53.55;97975.67;1780591;80;21134;-58
2021/12/20 02:28:43;;;;;;;2.20;1.52;;;;;;;9.74;53.51;97976.99;1781727;80;21287;-59
2021/12/20 02:39:11;;;;;;;1.55;1.22;;;;;;;9.74;53.50;97982.81;1775512;80;21145;-58
2021/12/20 02:41:38;;;;;;;2.15;1.55;;;;;;;9.72;53.50;97984.86;1782392;80;21042;-58
2021/12/20 02:44:06;;;;;;;1.40;1.30;;;;;;;9.71;53.52;97988.52;1780394;80;21081;-57
2021/12/20 02:49:10;;;;;;;1.75;1.17;;;;;;;9.72;53.50;97994.14;1782220;80;21062;-57
2021/12/20 02:51:37;;;;;;;1.32;1.17;;;;;;;9.71;53.51;97994.63;1781139;80;21312;-58
2021/12/20 02:54:06;;;;;;;1.85;1.12;;;;;;;9.71;53.51;97993.81;1779008;80;21030;-58
2021/12/20 02:56:34;;;;;;;2.12;1.40;;;;;;;9.70;53.52;97991.69;1777289;80;21057;-58
2021/12/20 02:59:00;;;;;;;1.30;1.00;;;;;;;9.70;53.51;97993.02;1770580;80;21057;-58
2021/12/20 03:01:27;;;;;;;1.35;1.00;;;;;;;9.70;53.48;98002.81;1773604;80;21100;-58
2021/12/20 03:03:55;;;;;;;1.55;1.07;;;;;;;9.71;53.47;98000.45;1769839;80;22368;-58
2021/12/20 03:06:46;;;;;;;1.95;1.50;;;;;;;9.70;53.47;98001.48;1782423;80;21010;-58
2021/12/20 03:09:18;;;;;;;1.17;1.07;;;;;;;9.70;53.48;97997.51;1782278;80;20998;-58
2021/12/20 03:11:46;;;;;;;1.50;1.07;;;;;;;9.69;53.47;97999.32;1782669;79;21010;-58
2021/12/20 03:14:25;;;;;;;1.67;1.20;;;;;;;9.69;53.47;97993.21;1780917;80;21010;-57
2021/12/20 03:16:49;;;;;;;1.50;1.37;;;;;;;9.70;53.46;98000.16;1768105;80;20997;-57
2021/12/20 03:19:15;;;;;;;1.37;1.20;;;;;;;9.69;53.47;97995.34;1782377;80;21041;-57
2021/12/20 03:21:42;;;;;;;1.82;1.35;;;;;;;9.70;53.47;97993.53;1782282;80;21080;-59
2021/12/20 03:24:08;;;;;;;1.40;1.17;;;;;;;9.69;53.47;97989.23;1782154;80;21392;-57
2021/12/20 03:26:35;;;;;;;1.25;1.15;;;;;;;9.68;53.45;97989.75;1773878;80;21013;-57
2021/12/20 03:29:03;;;;;;;1.72;1.27;;;;;;;9.68;53.46;97997.70;1782507;80;21081;-59
2021/12/20 03:31:30;;;;;;;1.70;1.25;;;;;;;9.68;53.45;97995.05;1782332;80;21037;-59
2021/12/20 03:33:57;;;;;;;2.08;1.20;;;;;;;9.68;53.43;97994.22;1776689;80;21046;-58
2021/12/20 03:36:24;;;;;;;1.85;1.07;;;;;;;9.68;53.48;97994.22;1779124;80;21017;-57
2021/12/20 03:38:50;;;;;;;1.30;1.15;;;;;;;9.68;53.45;98000.36;1781309;80;21049;-57
2021/12/20 03:41:19;;;;;;;1.55;1.20;;;;;;;9.69;53.42;98003.30;1778005;80;20979;-58
2021/12/20 03:43:45;;;;;;;1.72;1.10;;;;;;;9.68;53.42;97999.03;1780937;80;21002;-58
2021/12/20 03:46:12;;;;;;;1.40;1.20;;;;;;;9.69;53.40;98004.63;1768900;80;21038;-59
2021/12/20 03:48:39;;;;;;;1.67;1.30;;;;;;;9.69;53.39;98006.47;1778397;80;21519;-57
2021/12/20 03:51:05;;;;;;;1.42;1.20;;;;;;;9.69;53.40;98003.81;1772017;79;21013;-58
2021/12/20 03:53:33;;;;;;;1.77;1.25;;;;;;;9.70;53.38;98005.46;1743754;81;21130;-57
2021/12/20 03:56:02;;;;;;;1.60;1.20;;;;;;;9.69;53.35;98005.95;1705287;83;21027;-57
2021/12/20 03:58:29;;;;;;;1.20;1.10;;;;;;;9.70;53.37;98010.77;1690522;84;21159;-59
2021/12/20 04:00:58;;;;;;;1.82;1.35;;;;;;;9.69;53.35;98005.95;1694715;84;21188;-58
2021/12/20 04:03:25;;;;;;;1.40;1.30;;;;;;;9.70;53.33;98008.11;1697859;84;21583;-58
2021/12/20 04:05:52;;;;;;;1.42;1.05;;;;;;;9.69;53.33;98013.91;1697642;84;21157;-58
2021/12/20 04:08:18;;;;;;;2.15;1.67;;;;;;;9.71;53.33;98016.36;1688481;84;21008;-58
2021/12/20 04:10:45;;;;;;;1.60;1.40;;;;;;;9.70;53.30;98017.39;1697137;84;21051;-58
2021/12/20 04:13:11;;;;;;;1.57;1.20;;;;;;;9.70;53.31;98017.39;1697386;84;21578;-58
2021/12/20 04:15:38;;;;;;;1.22;1.12;;;;;;;9.69;53.30;98016.55;1697597;84;21086;-59
2021/12/20 04:18:05;;;;;;;1.05;0.90;;;;;;;9.70;53.30;98020.05;1691111;83;21143;-58
2021/12/20 04:20:31;;;;;;;1.47;1.30;;;;;;;9.69;53.30;98016.55;1695463;84;21542;-58
2021/12/20 04:22:58;;;;;;;1.60;1.40;;;;;;;9.68;53.31;98020.73;1697964;84;21034;-57
2021/12/20 04:25:24;;;;;;;1.22;1.07;;;;;;;9.70;53.27;98026.67;1697635;84;21542;-58
2021/12/20 04:27:50;;;;;;;1.40;1.10;;;;;;;9.69;53.27;98027.16;1695838;84;21078;-57
2021/12/20 04:30:17;;;;;;;1.20;1.10;;;;;;;9.69;53.27;98029.81;1697870;83;21822;-58
2021/12/20 04:32:45;;;;;;;1.35;1.25;;;;;;;9.69;53.27;98039.61;1693903;84;21118;-58
2021/12/20 04:35:13;;;;;;;1.10;1.00;;;;;;;9.69;53.27;98029.01;1697601;84;21558;-59
2021/12/20 04:37:42;;;;;;;1.72;1.20;;;;;;;9.69;53.27;98034.31;1683132;84;21106;-58
2021/12/20 04:40:15;;;;;;;1.50;1.35;;;;;;;9.70;53.26;98034.63;1702227;83;21063;-59
2021/12/20 04:42:39;;;;;;;1.25;1.05;;;;;;;9.69;53.24;98040.94;1679244;84;21922;-58
2021/12/20 04:45:09;;;;;;;1.20;1.10;;;;;;;9.68;53.24;98041.94;1751058;82;21030;-57
2021/12/20 04:47:37;;;;;;;1.60;1.50;;;;;;;9.69;53.26;98048.89;1749111;82;20995;-58
2021/12/20 04:50:05;;;;;;;1.12;1.02;;;;;;;9.69;53.24;98048.89;1751023;82;21046;-58
2021/12/20 04:52:32;;;;;;;1.80;1.32;;;;;;;9.67;53.25;98049.61;1749696;81;21061;-58
2021/12/20 04:54:58;;;;;;;1.82;1.30;;;;;;;9.66;53.22;98054.10;1748334;80;21138;-59
2021/12/20 04:57:25;;;;;;;2.15;1.70;;;;;;;9.65;53.25;98048.48;1749581;80;21066;-57
2021/12/20 04:59:52;;;;;;;1.47;1.10;;;;;;;9.66;53.22;98059.41;1726496;82;21053;-59
2021/12/20 05:02:18;;;;;;;1.42;1.32;;;;;;;9.65;53.22;98056.44;1733559;81;21521;-58
2021/12/20 05:04:45;;;;;;;2.05;1.20;;;;;;;9.65;53.22;98055.11;1690762;83;21093;-58
2021/12/20 05:07:11;;;;;;;1.30;1.20;;;;;;;9.65;53.23;98071.02;1663505;85;21929;-58
2021/12/20 05:09:40;;;;;;;1.62;1.20;;;;;;;9.64;53.23;98072.86;1695891;82;21045;-59
2021/12/20 05:12:15;;;;;;;1.42;1.00;;;;;;;9.65;53.20;98067.04;1655109;85;21156;-58
2021/12/20 05:14:40;;;;;;;1.37;1.27;;;;;;;9.65;53.20;98069.17;1696533;82;21066;-59
2021/12/20 05:17:08;;;;;;;1.22;1.12;;;;;;;9.64;53.21;98067.55;1665334;85;21510;-58
2021/12/20 05:19:35;;;;;;;1.45;1.35;;;;;;;9.64;53.20;98068.88;1703834;82;21150;-58
2021/12/20 05:22:02;;;;;;;1.75;1.30;;;;;;;9.64;53.20;98066.75;1655740;85;21042;-59
2021/12/20 05:24:28;;;;;;;1.70;1.20;;;;;;;9.63;53.19;98067.75;1701367;82;21034;-57
2021/12/20 05:26:55;;;;;;;1.20;1.10;;;;;;;9.64;53.19;98075.52;1666294;85;21061;-59
2021/12/20 05:29:22;;;;;;;1.35;1.15;;;;;;;9.64;53.20;98077.36;1685781;82;22224;-57
2021/12/20 05:31:50;;;;;;;1.65;1.35;;;;;;;9.63;53.19;98073.87;1679071;83;21135;-57
2021/12/20 05:34:17;;;;;;;1.30;1.20;;;;;;;9.63;53.19;98079.17;1689624;82;21034;-57
2021/12/20 05:36:45;;;;;;;1.20;1.10;;;;;;;9.63;53.17;98083.66;1671091;84;21067;-58
2021/12/20 05:39:12;;;;;;;1.37;1.10;;;;;;;9.63;53.17;98083.66;1706578;83;21050;-58
2021/12/20 05:41:38;;;;;;;1.55;1.00;;;;;;;9.63;53.19;98087.64;1671441;83;21075;-59
2021/12/20 05:44:05;;;;;;;1.92;1.40;;;;;;;9.62;53.16;98089.48;1707031;82;21099;-59
2021/12/20 05:46:33;;;;;;;1.27;1.12;;;;;;;9.63;53.15;98089.77;1677600;85;21542;-59
2021/12/20 05:48:59;;;;;;;1.20;1.10;;;;;;;9.63;53.15;98094.27;1673817;84;21042;-58
2021/12/20 05:51:25;;;;;;;1.12;0.82;;;;;;;9.62;53.16;98089.48;1674587;85;21810;-59
2021/12/20 05:53:52;;;;;;;1.25;1.00;;;;;;;9.63;53.15;98098.25;1699542;82;21025;-58
2021/12/20 05:56:18;;;;;;;1.45;1.10;;;;;;;9.63;53.14;98095.08;1673273;85;21119;-59
2021/12/20 05:58:44;;;;;;;1.22;1.05;;;;;;;9.63;53.13;98100.38;1730363;82;21023;-58
2021/12/20 06:01:11;;;;;;;1.60;1.22;;;;;;;9.63;53.15;98106.20;1736374;82;21018;-58
2021/12/20 06:03:37;;;;;;;1.55;0.90;;;;;;;9.63;53.15;98109.66;1764180;80;20999;-58
2021/12/20 06:06:03;;;;;;;1.30;1.10;;;;;;;9.62;53.10;98102.73;1768768;80;22038;-58
2021/12/20 06:11:18;;;;;;;1.25;1.15;;;;;;;9.69;53.12;98105.91;1818824;76;28108;-57
2021/12/20 06:13:45;;;;;;;1.20;1.10;;;;;;;9.62;53.14;98104.58;1799806;77;20915;-57
2021/12/20 06:16:11;;;;;;;1.15;1.02;;;;;;;9.62;53.14;98110.70;1794660;77;21147;-59
2021/12/20 06:18:38;;;;;;;1.52;1.30;;;;;;;9.62;53.10;98116.52;1801338;79;20962;-57
2021/12/20 06:21:05;;;;;;;1.95;1.70;;;;;;;9.63;53.09;98112.83;1816940;78;21533;-58
2021/12/20 06:23:31;;;;;;;1.37;1.05;;;;;;;9.64;53.08;98115.28;1822920;77;20950;-58
2021/12/20 06:25:57;;;;;;;1.27;1.10;;;;;;;9.64;53.07;98117.94;1744717;80;21010;-59
2021/12/20 06:28:25;;;;;;;1.32;1.20;;;;;;;9.64;53.09;98126.41;1743027;79;21145;-58
2021/12/20 06:30:51;;;;;;;1.12;1.02;;;;;;;9.64;53.08;98123.23;1787512;79;20969;-59
2021/12/20 06:33:18;;;;;;;2.15;1.50;;;;;;;9.64;53.19;98133.03;1819966;77;20990;-59
2021/12/20 06:35:45;;;;;;;1.37;1.17;;;;;;;9.64;53.27;98133.03;1804852;77;21570;-60
2021/12/20 06:38:20;;;;;;;1.32;1.17;;;;;;;9.66;53.30;98134.97;1789451;79;21524;-59
2021/12/20 06:40:41;;;;;;;1.57;1.25;;;;;;;9.67;53.32;98143.73;1785138;79;21914;-59
2021/12/20 06:43:07;;;;;;;1.55;1.45;;;;;;;9.64;53.31;98137.02;1797728;77;21110;-59
2021/12/20 06:45:34;;;;;;;2.10;1.42;;;;;;;9.68;53.26;98146.19;1798449;79;21029;-60
2021/12/20 06:48:01;;;;;;;1.32;1.22;;;;;;;9.68;53.26;98144.87;1793241;77;21588;-59
2021/12/20 06:50:28;;;;;;;1.20;1.10;;;;;;;9.67;53.25;98147.20;1800543;79;21029;-60
2021/12/20 06:52:54;;;;;;;1.45;1.15;;;;;;;9.70;53.23;98149.45;1807191;79;21136;-60
2021/12/20 06:55:21;;;;;;;1.72;1.42;;;;;;;9.69;53.21;98144.35;1797377;77;21014;-60
2021/12/20 06:57:48;;;;;;;1.37;1.15;;;;;;;9.70;53.21;98151.30;1795533;77;21093;-62
2021/12/20 07:00:15;;;;;;;1.32;1.22;;;;;;;9.70;53.17;98150.78;1801355;79;21505;-60
2021/12/20 07:02:41;;;;;;;1.55;1.10;;;;;;;9.71;53.17;98153.73;1800087;79;21431;-59
2021/12/20 07:05:09;;;;;;;1.52;1.30;;;;;;;9.72;53.15;98153.23;1798441;77;21927;-59
2021/12/20 07:07:35;;;;;;;1.92;1.30;;;;;;;9.72;53.12;98161.20;1802500;79;21113;-60
2021/12/20 07:10:04;;;;;;;1.47;1.30;;;;;;;9.72;53.10;98156.70;1779873;79;21053;-59
2021/12/20 07:12:35;;;;;;;1.47;1.20;;;;;;;9.74;53.12;98160.48;1783066;79;21017;-60
2021/12/20 07:15:00;;;;;;;1.80;1.37;;;;;;;9.74;53.09;98157.83;1783875;78;21026;-59
2021/12/20 07:17:27;;;;;;;1.72;1.40;;;;;;;9.74;53.07;98169.25;1777716;79;21131;-60
2021/12/20 07:19:54;;;;;;;1.87;1.30;;;;;;;9.76;53.07;98170.38;1773347;79;21034;-58
2021/12/20 07:22:20;;;;;;;1.25;1.10;;;;;;;9.76;53.06;98165.08;1771514;79;21066;-59
2021/12/20 07:24:47;;;;;;;1.77;1.40;;;;;;;9.77;53.03;98172.84;1770979;79;21078;-58
2021/12/20 07:27:13;;;;;;;1.20;1.10;;;;;;;9.77;53.03;98174.16;1782349;78;20987;-59
2021/12/20 07:29:39;;;;;;;2.00;1.50;;;;;;;9.79;53.01;98179.23;1790451;78;21127;-59
2021/12/20 07:32:07;;;;;;;2.02;1.82;;;;;;;9.79;53.00;98180.08;1778947;78;21022;-60
2021/12/20 07:34:33;;;;;;;1.62;1.30;;;;;;;9.80;52.99;98182.22;1782471;79;21007;-59
2021/12/20 07:36:59;;;;;;;1.55;1.25;;;;;;;9.81;52.96;98187.81;1776801;79;21610;-58
2021/12/20 07:39:26;;;;;;;1.42;1.32;;;;;;;9.82;52.94;98187.62;1778851;79;21077;-60
2021/12/20 07:41:52;;;;;;;1.37;1.27;;;;;;;9.83;52.94;98189.75;1785943;79;21132;-60
2021/12/20 07:44:21;;;;;;;1.77;1.15;;;;;;;9.83;52.92;98195.05;1772790;78;21022;-61
2021/12/20 07:46:47;;;;;;;1.70;1.25;;;;;;;9.84;52.91;98195.37;1774002;79;21085;-58
2021/12/20 07:49:14;;;;;;;1.67;1.30;;;;;;;9.85;52.89;98195.70;1771545;79;21749;-59
2021/12/20 07:51:40;;;;;;;1.47;1.22;;;;;;;9.87;52.88;98195.48;1777727;78;21013;-60
2021/12/20 07:54:06;;;;;;;1.40;1.30;;;;;;;9.88;52.86;98198.45;1780522;78;21563;-59
2021/12/20 07:56:33;;;;;;;2.27;1.30;;;;;;;9.89;52.85;98205.38;1779536;78;21037;-58
2021/12/20 07:59:00;;;;;;;1.52;1.40;;;;;;;9.90;52.85;98214.98;1777066;79;21026;-59
2021/12/20 08:01:29;;;;;;;1.92;1.32;;;;;;;9.92;52.83;98217.73;1786097;78;21108;-60
2021/12/20 08:04:14;;;;;;;1.52;1.42;;;;;;;9.92;52.82;98219.05;1777504;79;21492;-60
2021/12/20 08:06:45;;;;;;;2.10;1.65;;;;;;;9.94;52.80;98221.52;1775122;79;21017;-59
2021/12/20 08:09:14;;;;;;;2.08;1.80;;;;;;;9.94;52.78;98214.88;1779103;79;21026;-60
2021/12/20 08:11:43;;;;;;;1.65;1.40;;;;;;;9.95;52.76;98215.20;1777655;77;21080;-60
2021/12/20 08:14:27;;;;;;;1.90;1.45;;;;;;;9.97;52.75;98219.28;1781118;78;21279;-60
2021/12/20 08:16:54;;;;;;;1.55;1.45;;;;;;;9.96;52.75;98214.98;1779537;79;21077;-61
2021/12/20 08:19:20;;;;;;;1.82;1.30;;;;;;;9.97;52.73;98222.45;1777160;79;21199;-61
2021/12/20 08:21:46;;;;;;;1.70;1.47;;;;;;;9.98;52.73;98222.23;1771885;79;21073;-60
2021/12/20 08:24:12;;;;;;;1.90;1.55;;;;;;;9.99;52.70;98218.56;1799700;78;21046;-59
2021/12/20 08:26:40;;;;;;;1.77;1.45;;;;;;;10.01;52.69;98227.66;1734432;81;21093;-59
2021/12/20 08:29:06;;;;;;;1.80;1.60;;;;;;;10.01;52.67;98225.01;1721985;82;21112;-59
2021/12/20 08:31:33;;;;;;;2.50;1.40;;;;;;;10.01;52.67;98220.51;1781069;79;21128;-61
2021/12/20 08:34:00;;;;;;;2.58;1.67;;;;;;;9.96;52.62;98214.17;1783922;77;20995;-59
2021/12/20 08:36:26;;;;;;;2.10;1.85;;;;;;;10.02;52.61;98231.45;1778008;77;21074;-60
2021/12/20 08:38:52;;;;;;;1.75;1.40;;;;;;;10.04;52.59;98227.23;1781644;77;21025;-60
2021/12/20 08:41:19;;;;;;;1.62;1.40;;;;;;;10.04;52.60;98224.58;1782365;77;21491;-59
2021/12/20 08:44:04;;;;;;;2.27;1.65;;;;;;;10.04;52.59;98234.71;1780877;77;21013;-60
2021/12/20 08:46:31;;;;;;;2.17;1.75;;;;;;;10.06;52.58;98231.02;1785921;77;21147;-59
2021/12/20 08:48:58;;;;;;;2.20;1.65;;;;;;;10.06;52.58;98231.83;1791934;78;21097;-61
2021/12/20 08:51:25;;;;;;;1.87;1.45;;;;;;;10.06;52.57;98235.00;1785214;77;21113;-60
2021/12/20 08:53:52;;;;;;;1.40;1.30;;;;;;;10.07;52.56;98235.33;1780274;77;21077;-60
2021/12/20 08:56:35;;;;;;;2.42;1.87;;;;;;;10.07;52.55;98237.46;1779684;79;27580;-61
2021/12/20 08:59:02;;;;;;;1.85;1.60;;;;;;;10.08;52.52;98242.25;1778364;79;21879;-60
2021/12/20 09:01:29;;;;;;;1.70;1.55;;;;;;;10.08;52.52;98240.41;1774932;79;21037;-60
2021/12/20 09:03:57;;;;;;;1.70;1.40;;;;;;;10.08;52.52;98239.08;1776888;77;20982;-61
2021/12/20 09:06:25;;;;;;;1.70;1.47;;;;;;;10.09;52.50;98230.63;1776786;77;21066;-59
2021/12/20 09:09:13;;;;;;;1.75;1.50;;;;;;;10.09;52.49;98235.94;1783395;77;21545;-62
2021/12/20 09:11:39;;;;;;;1.55;1.35;;;;;;;10.09;52.50;98228.79;1791677;77;21343;-60
2021/12/20 09:14:06;;;;;;;1.65;1.40;;;;;;;10.09;52.51;98231.44;1781732;79;21018;-60
2021/12/20 09:16:32;;;;;;;1.90;1.40;;;;;;;10.10;52.51;98236.23;1788515;77;21029;-61
2021/12/20 09:18:59;;;;;;;1.62;1.30;;;;;;;10.09;52.47;98226.13;1787067;79;21027;-59
2021/12/20 09:21:25;;;;;;;1.98;1.70;;;;;;;10.13;52.45;98237.98;1802558;79;21071;-60
2021/12/20 09:23:51;;;;;;;1.92;1.67;;;;;;;10.15;52.44;98229.30;1781552;79;21061;-60
2021/12/20 09:26:18;;;;;;;1.47;1.30;;;;;;;10.19;52.40;98227.06;1801798;77;21006;-61
2021/12/20 09:28:45;;;;;;;1.47;1.20;;;;;;;10.23;52.38;98226.96;1810095;79;21026;-59
2021/12/20 09:31:11;;;;;;;1.27;1.17;;;;;;;10.26;52.31;98227.90;1787188;79;21049;-59
2021/12/20 09:33:38;;;;;;;1.55;1.40;;;;;;;10.31;52.26;98222.00;1785000;79;21961;-60
2021/12/20 09:36:05;;;;;;;1.60;1.50;;;;;;;10.35;52.19;98218.75;1792467;77;21052;-61
2021/12/20 09:38:32;;;;;;;2.08;1.80;;;;;;;10.40;52.11;98229.55;1800264;78;21510;-60
2021/12/20 09:41:15;;;;;;;1.70;1.47;;;;;;;10.46;52.06;98223.13;1791606;79;21048;-60
2021/12/20 09:43:30;;;;;;;1.50;1.40;;;;;;;10.50;52.00;98222.51;1804203;79;21069;-60
2021/12/20 09:45:57;;;;;;;1.75;1.50;;;;;;;10.55;51.93;98228.55;1801943;77;21503;-58
2021/12/20 09:48:24;;;;;;;1.95;1.30;;;;;;;10.59;51.86;98221.80;1801466;79;21003;-58
2021/12/20 09:50:50;;;;;;;1.92;1.40;;;;;;;10.63;51.79;98229.14;1788994;78;21049;-62
2021/12/20 09:53:16;;;;;;;1.47;1.27;;;;;;;10.69;51.75;98226.18;1802478;77;20974;-59
2021/12/20 09:55:47;;;;;;;1.50;1.32;;;;;;;10.71;51.67;98226.79;1801919;79;21450;-60
2021/12/20 09:58:14;;;;;;;1.60;1.22;;;;;;;10.74;51.61;98227.72;1796292;77;21083;-60
2021/12/20 10:00:41;;;;;;;2.00;1.35;;;;;;;10.77;51.58;98232.59;1805143;78;21013;-59
2021/12/20 10:03:08;;;;;;;1.77;1.30;;;;;;;10.79;51.52;98231.07;1795149;77;21088;-60
2021/12/20 10:05:35;;;;;;;2.02;1.50;;;;;;;10.81;51.49;98230.35;1796129;79;21561;-59
2021/12/20 10:08:12;;;;;;;1.75;1.40;;;;;;;10.82;51.45;98230.67;1790279;77;21029;-60
2021/12/20 10:10:45;;;;;;;1.75;1.40;;;;;;;10.85;51.42;98230.77;1783185;79;21110;-59
2021/12/20 10:13:27;;;;;;;1.65;1.20;;;;;;;10.86;51.40;98231.08;1780722;77;21030;-60
2021/12/20 10:15:56;;;;;;;1.52;1.32;;;;;;;10.87;51.38;98230.04;1791579;77;21037;-58
2021/12/20 10:18:23;;;;;;;2.30;1.60;;;;;;;10.89;51.38;98238.62;1794521;77;21654;-59
2021/12/20 10:20:57;;;;;;;2.52;1.70;;;;;;;10.90;51.36;98238.94;1779983;79;21030;-60
2021/12/20 10:23:30;;;;;;;2.25;1.52;;;;;;;10.90;51.36;98241.59;1787674;78;21587;-60
2021/12/20 10:26:10;;;;;;;1.60;1.50;;;;;;;10.92;51.34;98247.52;1799968;79;21445;-62
2021/12/20 10:28:37;;;;;;;1.60;1.50;;;;;;;10.91;51.33;98245.34;1772418;79;21117;-60
2021/12/20 10:31:15;;;;;;;1.80;1.60;;;;;;;10.92;51.33;98244.34;1781575;77;21035;-59
2021/12/20 10:33:58;;;;;;;1.80;1.47;;;;;;;10.91;51.32;98241.36;1791135;79;21077;-59
2021/12/20 10:36:25;;;;;;;2.67;1.98;;;;;;;10.92;51.34;98244.34;1790813;79;21356;-60
2021/12/20 10:38:56;;;;;;;1.87;1.47;;;;;;;10.92;51.33;98243.53;1780811;79;21014;-59
2021/12/20 10:41:33;;;;;;;2.10;1.70;;;;;;;10.91;51.34;98244.02;1785431;79;21045;-61
2021/12/20 10:43:59;;;;;;;1.50;1.40;;;;;;;10.94;51.32;98248.13;1784275;78;21018;-59
2021/12/20 10:46:32;;;;;;;1.95;1.70;;;;;;;10.95;51.31;98241.28;1793347;78;21040;-60
2021/12/20 10:49:11;;;;;;;1.80;1.55;;;;;;;10.96;51.30;98250.06;1789579;78;21098;-60
2021/12/20 10:51:42;;;;;;;2.45;1.60;;;;;;;11.00;51.25;98252.60;1785268;79;21152;-62
2021/12/20 10:54:11;;;;;;;1.70;1.50;;;;;;;11.03;51.22;98242.91;1773613;79;21057;-61
2021/12/20 10:56:50;;;;;;;1.62;1.35;;;;;;;11.08;51.20;98245.73;1775517;79;21029;-61
2021/12/20 10:59:20;;;;;;;2.08;1.70;;;;;;;11.15;51.19;98236.44;1775373;79;21068;-60
2021/12/20 11:03:02;;;;;;;1.47;1.37;;;;;;;11.24;51.17;98239.14;1787328;79;21170;-61
2021/12/20 11:04:37;;;;;;;1.77;1.50;;;;;;;11.35;51.09;98246.48;1788234;79;21058;-61
2021/12/20 11:09:39;;;;;;;2.15;1.75;;;;;;;11.57;50.97;98244.37;1792645;79;21018;-61
2021/12/20 11:12:09;;;;;;;1.55;1.45;;;;;;;11.66;50.97;98239.61;1778265;78;21038;-60
2021/12/20 11:14:40;;;;;;;2.75;1.67;;;;;;;11.72;50.86;98244.08;1780021;79;21055;-61
2021/12/20 11:17:09;;;;;;;1.60;1.40;;;;;;;11.78;50.78;98242.41;1775006;79;21085;-60
2021/12/20 11:19:40;;;;;;;1.50;1.27;;;;;;;11.79;50.73;98240.87;1766293;80;21029;-61
2021/12/20 11:22:12;;;;;;;2.33;1.90;;;;;;;11.85;50.67;98243.73;1780727;80;21037;-60
2021/12/20 11:24:53;;;;;;;1.60;1.50;;;;;;;11.87;50.64;98248.31;1767233;79;21056;-61
2021/12/20 11:27:32;;;;;;;1.52;1.25;;;;;;;11.87;50.59;98251.79;1770793;78;21943;-60
2021/12/20 11:30:03;;;;;;;1.72;1.45;;;;;;;11.88;50.57;98254.77;1774801;79;21627;-60
2021/12/20 11:32:31;;;;;;;1.90;1.40;;;;;;;11.90;50.51;98251.41;1779806;79;21017;-59
2021/12/20 11:34:57;;;;;;;1.50;1.30;;;;;;;11.91;50.49;98253.02;1784092;79;21000;-59
2021/12/20 11:37:26;;;;;;;1.55;1.45;;;;;;;11.93;50.47;98252.81;1787278;79;21012;-59
2021/12/20 11:39:54;;;;;;;1.60;1.35;;;;;;;11.94;50.45;98255.80;1785189;78;21087;-60
2021/12/20 11:42:21;;;;;;;2.33;1.52;;;;;;;11.94;50.41;98253.94;1793092;79;21511;-59
2021/12/20 11:44:49;;;;;;;2.08;1.57;;;;;;;11.96;50.38;98259.86;1786223;78;21069;-60
2021/12/20 11:47:39;;;;;;;1.87;1.62;;;;;;;11.96;50.35;98259.86;1793890;78;21015;-61
2021/12/20 11:50:13;;;;;;;1.40;1.30;;;;;;;11.96;50.32;98255.06;1770954;78;20966;-59
2021/12/20 11:52:42;;;;;;;2.02;1.70;;;;;;;11.96;50.32;98256.39;1777549;79;21115;-60
2021/12/20 11:55:25;;;;;;;1.60;1.47;;;;;;;11.95;50.30;98263.53;1779222;78;21506;-59
2021/12/20 11:57:54;;;;;;;2.67;1.52;;;;;;;11.94;50.33;98273.90;1785926;78;21017;-59
2021/12/20 12:00:39;;;;;;;2.05;1.80;;;;;;;11.93;50.30;98274.91;1766636;78;21209;-60
2021/12/20 12:03:21;;;;;;;2.25;1.70;;;;;;;11.90;50.32;98270.03;1780946;80;21013;-59
2021/12/20 12:05:56;;;;;;;2.17;1.60;;;;;;;11.88;50.31;98270.73;1787427;80;21141;-59
2021/12/20 12:08:43;;;;;;;1.30;1.20;;;;;;;11.86;50.33;98274.12;1780571;79;21041;-60